createdAt,value
2023-02-03T00:01:53.735Z,102046.31
2023-02-03T00:04:29.900Z,102035.72
2023-02-03T00:07:04.216Z,102061.66
2023-02-03T00:09:33.196Z,102071.59
2023-02-03T00:12:06.160Z,102085.13
2023-02-03T00:14:42.737Z,102085.41
2023-02-03T00:17:21.621Z,102016.56
2023-02-03T00:19:48.436Z,102086.66
2023-02-03T00:22:14.936Z,102087.41
2023-02-03T00:24:46.956Z,102046.09
2023-02-03T00:27:16.784Z,102083.44
2023-02-03T00:29:45.066Z,102011.81
2023-02-03T00:32:17.932Z,102080.69
2023-02-03T00:34:47.655Z,102033.63
2023-02-03T00:37:16.461Z,102023.69
2023-02-03T00:39:46.075Z,102026.88
2023-02-03T00:42:19.975Z,102019.78
2023-02-03T00:44:46.704Z,101907.22
2023-02-03T00:47:18.140Z,101938.75
2023-02-03T00:49:47.163Z,101945.72
2023-02-03T00:52:21.383Z,101925.16
2023-02-03T00:54:48.332Z,102047.81
2023-02-03T00:57:19.587Z,102007.06
2023-02-03T00:59:46.304Z,102060.53
2023-02-03T01:02:42.088Z,102047.84
2023-02-03T01:05:08.898Z,102071.50
2023-02-03T01:07:37.054Z,102071.09
2023-02-03T01:10:10.403Z,102052.75
2023-02-03T01:12:37.246Z,102059.09
2023-02-03T01:15:04.434Z,102086.38
2023-02-03T01:17:38.735Z,102055.88
2023-02-03T01:20:17.466Z,102082.75
2023-02-03T01:22:48.007Z,102005.47
2023-02-03T01:25:14.468Z,102041.78
2023-02-03T01:27:46.966Z,102044.78
2023-02-03T01:30:16.872Z,102087.97
2023-02-03T01:32:50.671Z,102087.41
2023-02-03T01:35:22.082Z,102038.00
2023-02-03T01:37:48.670Z,102065.44
2023-02-03T01:40:15.232Z,102096.47
2023-02-03T01:42:41.694Z,102061.13
2023-02-03T01:45:13.554Z,102082.25
2023-02-03T01:47:47.856Z,102097.75
2023-02-03T01:50:29.190Z,102108.25
2023-02-03T01:53:05.388Z,102108.78
2023-02-03T01:55:39.941Z,102036.63
2023-02-03T01:58:20.249Z,102116.00
2023-02-03T02:01:05.619Z,102112.06
2023-02-03T02:03:43.165Z,102059.50
2023-02-03T02:06:12.819Z,101902.47
2023-02-03T02:08:42.318Z,102105.63
2023-02-03T02:11:09.277Z,102009.84
2023-02-03T02:13:36.794Z,101989.19
2023-02-03T02:16:15.344Z,102121.19
2023-02-03T02:18:47.855Z,102100.72
2023-02-03T02:21:43.106Z,102101.69
2023-02-03T02:24:34.644Z,102037.22
2023-02-03T02:27:15.253Z,102104.75
2023-02-03T02:30:21.854Z,102094.66
2023-02-03T02:32:53.632Z,102102.53
2023-02-03T02:35:42.217Z,102098.25
2023-02-03T02:38:21.424Z,102100.31
2023-02-03T02:40:56.477Z,102095.09
2023-02-03T02:43:26.809Z,101958.63
2023-02-03T02:46:06.871Z,101931.97
2023-02-03T02:48:44.680Z,101933.69
2023-02-03T02:51:14.212Z,102087.91
2023-02-03T02:53:46.881Z,101942.53
2023-02-03T02:56:20.795Z,102038.44
2023-02-03T02:58:51.917Z,102053.97
2023-02-03T03:01:19.453Z,102111.53
2023-02-03T03:03:47.165Z,102119.44
2023-02-03T03:06:27.586Z,102093.38
2023-02-03T03:09:03.910Z,102110.78
2023-02-03T03:11:36.557Z,102082.66
2023-02-03T03:14:05.388Z,102099.69
2023-02-03T03:16:39.801Z,102077.47
2023-02-03T03:19:20.290Z,102086.84
2023-02-03T03:21:57.610Z,101982.63
2023-02-03T03:24:42.101Z,102095.38
2023-02-03T03:27:22.988Z,102135.53
2023-02-03T03:30:00.770Z,102129.53
2023-02-03T03:32:33.050Z,101908.75
2023-02-03T03:35:04.751Z,102147.72
2023-02-03T03:38:15.231Z,102134.69
2023-02-03T03:40:49.803Z,102098.50
2023-02-03T03:43:22.203Z,102114.13
2023-02-03T03:46:01.743Z,102149.53
2023-02-03T03:48:48.573Z,102148.84
2023-02-03T03:51:39.617Z,102146.22
2023-02-03T03:54:10.260Z,102098.63
2023-02-03T03:56:53.853Z,102128.16
2023-02-03T03:59:24.886Z,102123.13
2023-02-03T04:01:55.481Z,102078.97
2023-02-03T04:04:26.259Z,102175.34
2023-02-03T04:07:13.524Z,102140.72
2023-02-03T04:09:42.974Z,102124.22
2023-02-03T04:12:29.655Z,102178.88
2023-02-03T04:14:59.866Z,102048.28
2023-02-03T04:17:29.879Z,102166.91
2023-02-03T04:19:56.657Z,102028.50
2023-02-03T04:22:23.164Z,102160.69
2023-02-03T04:24:52.676Z,102079.72
2023-02-03T04:27:22.412Z,102197.34
2023-02-03T04:29:52.057Z,102037.44
2023-02-03T04:32:19.092Z,101930.50
2023-02-03T04:34:46.385Z,102172.75
2023-02-03T04:37:22.341Z,102191.63
2023-02-03T04:39:57.694Z,102166.41
2023-02-03T04:42:24.924Z,102199.06
2023-02-03T04:44:54.245Z,102211.66
2023-02-03T04:47:21.989Z,102159.06
2023-02-03T04:49:56.579Z,102138.66
2023-02-03T04:52:34.691Z,102070.25
2023-02-03T04:55:18.147Z,102136.50
2023-02-03T04:57:51.967Z,102016.44
2023-02-03T05:00:18.900Z,102065.59
2023-02-03T05:02:49.198Z,102085.41
2023-02-03T05:05:17.176Z,102131.94
2023-02-03T05:07:53.527Z,102075.00
2023-02-03T05:10:22.933Z,102145.44
2023-02-03T05:12:49.945Z,102094.00
2023-02-03T05:15:16.769Z,102136.34
2023-02-03T05:17:43.343Z,102176.22
2023-02-03T05:20:11.103Z,102131.41
2023-02-03T05:22:41.319Z,102179.09
2023-02-03T05:25:17.471Z,102178.25
2023-02-03T05:27:44.658Z,102188.94
2023-02-03T05:30:11.941Z,102173.97
2023-02-03T05:35:25.840Z,102125.22
2023-02-03T05:38:00.220Z,102073.28
2023-02-03T05:40:46.585Z,102069.72
2023-02-03T05:43:23.200Z,102126.09
2023-02-03T05:45:52.586Z,102124.66
2023-02-03T05:48:20.668Z,102111.63
2023-02-03T05:50:52.210Z,102163.00
2023-02-03T05:53:19.743Z,102136.91
2023-02-03T05:55:51.023Z,102151.88
2023-02-03T05:58:26.950Z,102027.38
2023-02-03T06:00:58.909Z,102133.88
2023-02-03T06:03:31.933Z,102062.81
2023-02-03T06:06:00.474Z,101933.75
2023-02-03T06:08:28.749Z,102165.56
2023-02-03T06:11:00.706Z,101944.28
2023-02-03T06:13:30.661Z,102156.78
2023-02-03T06:18:53.515Z,102061.22
2023-02-03T06:21:25.878Z,101984.00
2023-02-03T06:23:52.715Z,102194.66
2023-02-03T06:26:21.474Z,101976.06
2023-02-03T06:28:52.035Z,102187.38
2023-02-03T06:31:19.780Z,102132.72
2023-02-03T06:33:53.725Z,102167.41
2023-02-03T06:36:45.698Z,102106.00
2023-02-03T06:43:08.107Z,102094.44
2023-02-03T06:45:36.928Z,102130.38
2023-02-03T06:48:14.386Z,102183.22
2023-02-03T06:50:48.666Z,102153.28
2023-02-03T06:53:15.549Z,102126.81
2023-02-03T06:55:42.314Z,102163.25
2023-02-03T06:58:12.400Z,102172.94
2023-02-03T07:00:39.019Z,102184.31
2023-02-03T07:03:07.347Z,102137.88
2023-02-03T07:05:40.827Z,102161.25
2023-02-03T07:08:16.744Z,102167.41
2023-02-03T07:10:43.375Z,102134.47
2023-02-03T07:13:12.802Z,102125.25
2023-02-03T07:15:42.750Z,102175.69
2023-02-03T07:18:14.981Z,102183.47
2023-02-03T07:20:44.571Z,102202.44
2023-02-03T07:23:14.234Z,102152.19
2023-02-03T07:25:43.902Z,102183.75
2023-02-03T07:28:14.301Z,102173.72
2023-02-03T07:30:41.023Z,102182.38
2023-02-03T07:33:08.065Z,102207.25
2023-02-03T07:38:22.205Z,102183.28
2023-02-03T07:41:01.015Z,102231.69
2023-02-03T07:43:38.391Z,102228.00
2023-02-03T07:46:05.189Z,102166.34
2023-02-03T07:48:38.116Z,102208.91
2023-02-03T07:51:05.067Z,102215.66
2023-02-03T07:53:35.156Z,102257.88
2023-02-03T07:56:04.722Z,102121.75
2023-02-03T07:58:35.953Z,102265.59
2023-02-03T08:01:09.429Z,102194.28
2023-02-03T08:03:39.654Z,102284.88
2023-02-03T08:08:50.656Z,102269.84
2023-02-03T08:11:22.012Z,102305.53
2023-02-03T08:13:51.370Z,102295.53
2023-02-03T08:16:33.078Z,102274.09
2023-02-03T08:19:02.748Z,102309.81
2023-02-03T08:21:29.439Z,102357.50
2023-02-03T08:24:00.246Z,102289.09
2023-02-03T08:26:26.884Z,102289.16
2023-02-03T08:28:58.607Z,102303.69
2023-02-03T08:31:25.436Z,102325.25
2023-02-03T08:33:52.230Z,102328.69
2023-02-03T08:36:19.096Z,102280.44
2023-02-03T08:38:49.562Z,102244.41
2023-02-03T08:41:18.221Z,102253.81
2023-02-03T08:43:45.738Z,102337.44
2023-02-03T08:46:18.339Z,102351.53
2023-02-03T08:48:53.360Z,102301.06
2023-02-03T08:54:06.547Z,102310.19
2023-02-03T08:56:48.080Z,102333.31
2023-02-03T08:59:17.230Z,102311.56
2023-02-03T09:04:38.162Z,102295.31
2023-02-03T09:07:04.919Z,102294.31
2023-02-03T09:09:32.283Z,102295.47
2023-02-03T09:12:05.792Z,102309.00
2023-02-03T09:14:33.660Z,102316.78
2023-02-03T09:17:14.828Z,102169.03
2023-02-03T09:19:42.314Z,102300.25
2023-02-03T09:22:11.554Z,102288.47
2023-02-03T09:24:48.176Z,102231.59
2023-02-03T09:27:15.099Z,102284.63
2023-02-03T09:29:47.001Z,102278.22
2023-02-03T09:32:16.784Z,102227.75
2023-02-03T09:34:47.200Z,102272.19
2023-02-03T09:37:37.098Z,102259.00
2023-02-03T09:40:04.174Z,102279.97
2023-02-03T09:43:20.510Z,102220.94
2023-02-03T09:46:02.919Z,102270.25
2023-02-03T09:49:24.913Z,102212.25
2023-02-03T09:52:13.948Z,102182.09
2023-02-03T09:55:11.591Z,102277.84
2023-02-03T09:57:46.739Z,102276.66
2023-02-03T10:00:38.174Z,102285.88
2023-02-03T10:03:16.150Z,102237.88
2023-02-03T10:06:01.075Z,102297.25
2023-02-03T10:09:18.328Z,102198.78
2023-02-03T10:12:14.661Z,102237.13
2023-02-03T10:15:03.157Z,102260.88
2023-02-03T10:18:09.715Z,102275.84
2023-02-03T10:21:01.013Z,102271.75
2023-02-03T10:23:42.615Z,102279.69
2023-02-03T10:26:17.474Z,102271.38
2023-02-03T10:29:34.257Z,102287.53
2023-02-03T10:32:24.483Z,102283.06
2023-02-03T10:35:16.955Z,102270.91
2023-02-03T10:37:54.206Z,102287.16
2023-02-03T10:40:37.700Z,102224.09
2023-02-03T10:43:27.214Z,102292.72
2023-02-03T10:45:54.581Z,102094.31
2023-02-03T10:48:27.998Z,102245.22
2023-02-03T10:51:07.527Z,102165.81
2023-02-03T10:53:37.441Z,102293.63
2023-02-03T10:56:19.794Z,102285.47
2023-02-03T10:58:59.438Z,102257.38
2023-02-03T11:01:48.105Z,102270.94
2023-02-03T11:04:38.150Z,102180.63
2023-02-03T11:07:36.061Z,102265.06
2023-02-03T11:10:27.463Z,102242.09
2023-02-03T11:13:24.520Z,102251.38
2023-02-03T11:16:01.175Z,102253.16
2023-02-03T11:18:52.697Z,102072.06
2023-02-03T11:21:30.552Z,102262.63
2023-02-03T11:24:21.474Z,102230.53
2023-02-03T11:27:02.637Z,102106.25
2023-02-03T11:29:32.153Z,102194.03
2023-02-03T11:32:05.765Z,102188.72
2023-02-03T11:37:42.234Z,102220.84
2023-02-03T11:40:08.968Z,102218.03
2023-02-03T11:42:38.012Z,102167.00
2023-02-03T11:45:28.146Z,102230.72
2023-02-03T11:48:05.940Z,102226.28
2023-02-03T11:50:41.600Z,102224.25
2023-02-03T11:53:08.222Z,102202.63
2023-02-03T11:56:15.414Z,102208.31
2023-02-03T11:59:10.246Z,102204.16
2023-02-03T12:02:09.933Z,102198.25
2023-02-03T12:05:13.880Z,102215.41
2023-02-03T12:08:18.258Z,102215.16
2023-02-03T12:11:14.185Z,102211.16
2023-02-03T12:14:04.723Z,102199.03
2023-02-03T12:16:38.425Z,102195.16
2023-02-03T12:19:41.702Z,102192.56
2023-02-03T12:22:36.273Z,102168.91
2023-02-03T12:25:40.657Z,102158.28
2023-02-03T12:28:23.737Z,102163.09
2023-02-03T12:31:10.435Z,102168.81
2023-02-03T12:33:59.618Z,102128.81
2023-02-03T12:36:51.328Z,102111.19
2023-02-03T12:39:28.527Z,102098.88
2023-02-03T12:42:37.972Z,102104.09
2023-02-03T12:45:41.115Z,102044.03
2023-02-03T12:48:24.109Z,102098.31
2023-02-03T12:51:01.471Z,102078.69
2023-02-03T12:53:36.574Z,102065.31
2023-02-03T12:56:05.299Z,102047.06
2023-02-03T12:58:43.251Z,102075.13
2023-02-03T13:01:29.727Z,102073.53
2023-02-03T13:04:08.821Z,102079.97
2023-02-03T13:07:21.819Z,101930.03
2023-02-03T13:10:01.206Z,102042.06
2023-02-03T13:12:51.712Z,101911.94
2023-02-03T13:15:54.426Z,102044.53
2023-02-03T13:18:21.710Z,102043.47
2023-02-03T13:23:43.158Z,102022.38
2023-02-03T13:26:28.078Z,102039.19
2023-02-03T13:29:07.042Z,102042.59
2023-02-03T13:31:46.259Z,102017.22
2023-02-03T13:34:21.118Z,101948.72
2023-02-03T13:37:36.317Z,101975.13
2023-02-03T13:40:21.147Z,101974.63
2023-02-03T13:43:04.998Z,101976.84
2023-02-03T13:45:49.650Z,101975.03
2023-02-03T13:48:33.814Z,101966.00
2023-02-03T13:51:21.900Z,101970.03
2023-02-03T13:53:51.038Z,101969.41
2023-02-03T13:56:26.285Z,101951.59
2023-02-03T13:59:22.846Z,101892.00
2023-02-03T14:01:49.762Z,101973.72
2023-02-03T14:04:31.540Z,101968.72
2023-02-03T14:07:03.447Z,101946.94
2023-02-03T14:09:36.101Z,101974.66
2023-02-03T14:12:15.116Z,101804.50
2023-02-03T14:14:45.818Z,101878.28
2023-02-03T14:17:47.158Z,101977.22
2023-02-03T14:20:39.146Z,101959.16
2023-02-03T14:23:05.697Z,101914.53
2023-02-03T14:25:45.816Z,101973.22
2023-02-03T14:28:23.078Z,101974.66
2023-02-03T14:31:07.070Z,101972.13
2023-02-03T14:33:49.332Z,101962.25
2023-02-03T14:36:42.255Z,101981.50
2023-02-03T14:39:55.284Z,101990.19
2023-02-03T14:42:29.629Z,101969.47
2023-02-03T14:44:56.259Z,101975.88
2023-02-03T14:47:44.704Z,101975.13
2023-02-03T14:50:34.173Z,101967.34
2023-02-03T14:53:28.304Z,101975.44
2023-02-03T14:56:13.929Z,101968.31
2023-02-03T15:01:36.592Z,101871.19
2023-02-03T15:04:12.560Z,101969.56
2023-02-03T15:06:48.549Z,101906.66
2023-02-03T15:09:48.465Z,101967.34
2023-02-03T15:12:19.726Z,101960.00
2023-02-03T15:14:49.380Z,101918.38
2023-02-03T15:17:28.193Z,101952.78
2023-02-03T15:19:56.343Z,101949.06
2023-02-03T15:22:29.124Z,101927.72
2023-02-03T15:24:59.543Z,101932.06
2023-02-03T15:27:36.349Z,101958.97
2023-02-03T15:30:28.997Z,101960.91
2023-02-03T15:33:08.171Z,101865.03
2023-02-03T15:35:37.850Z,101946.34
2023-02-03T15:38:32.248Z,101871.81
2023-02-03T15:43:56.669Z,101895.00
2023-02-03T15:46:28.506Z,101879.19
2023-02-03T15:49:17.971Z,101923.06
2023-02-03T15:51:59.619Z,101906.38
2023-02-03T15:54:43.327Z,101817.38
2023-02-03T15:57:23.325Z,101779.13
2023-02-03T16:00:57.630Z,101796.84
2023-02-03T16:03:41.375Z,101884.16
2023-02-03T16:06:25.424Z,101820.13
2023-02-03T16:08:59.917Z,101872.47
2023-02-03T16:11:37.133Z,101805.47
2023-02-03T16:14:14.261Z,101832.94
2023-02-03T16:17:04.258Z,101874.19
2023-02-03T16:19:38.651Z,101755.00
2023-02-03T16:22:25.614Z,101884.06
2023-02-03T16:24:57.290Z,101892.47
2023-02-03T16:27:30.547Z,101830.41
2023-02-03T16:30:25.250Z,101896.50
2023-02-03T16:33:35.846Z,101910.72
2023-02-03T16:36:49.222Z,101911.91
2023-02-03T16:39:43.240Z,101907.94
2023-02-03T16:42:42.916Z,101863.97
2023-02-03T16:45:41.268Z,101891.47
2023-02-03T16:48:38.653Z,101871.13
2023-02-03T16:51:37.902Z,101908.78
2023-02-03T16:54:06.351Z,101880.63
2023-02-03T16:56:35.473Z,101877.03
2023-02-03T16:59:10.175Z,101898.28
2023-02-03T17:02:05.225Z,101903.88
2023-02-03T17:04:32.034Z,101876.63
2023-02-03T17:06:58.652Z,101878.28
2023-02-03T17:09:25.335Z,101898.06
2023-02-03T17:12:09.609Z,101903.91
2023-02-03T17:14:36.219Z,101885.94
2023-02-03T17:20:01.635Z,101855.53
2023-02-03T17:22:30.655Z,101880.44
2023-02-03T17:25:04.697Z,101875.44
2023-02-03T17:27:31.462Z,101872.34
2023-02-03T17:29:58.197Z,101865.72
2023-02-03T17:32:25.355Z,101667.59
2023-02-03T17:34:58.949Z,101861.81
2023-02-03T17:37:25.684Z,101863.94
2023-02-03T17:53:50.926Z,101815.50
2023-02-03T17:56:36.016Z,101740.31
2023-02-03T17:59:05.053Z,101818.88
2023-02-03T18:01:33.403Z,101779.19
2023-02-03T18:04:24.157Z,101821.59
2023-02-03T18:06:50.848Z,101771.94
2023-02-03T18:09:23.393Z,101822.84
2023-02-03T18:12:14.558Z,101836.56
2023-02-03T18:14:41.268Z,101838.66
2023-02-03T18:17:14.711Z,101787.06
2023-02-03T18:19:46.629Z,101830.53
2023-02-03T18:22:15.830Z,101734.34
2023-02-03T18:24:45.047Z,101827.31
2023-02-03T18:27:22.734Z,101792.94
2023-02-03T18:29:52.277Z,101636.41
2023-02-03T18:32:20.123Z,101738.78
2023-02-03T18:34:47.392Z,101551.06
2023-02-03T18:37:14.369Z,101740.75
2023-02-03T18:39:41.239Z,101774.38
2023-02-03T18:42:08.587Z,101796.09
2023-02-03T18:44:35.888Z,101805.94
2023-02-03T18:47:09.001Z,101754.34
2023-02-03T18:49:37.178Z,101782.53
2023-02-03T18:52:08.046Z,101680.53
2023-02-03T18:54:42.794Z,101724.50
2023-02-03T18:57:13.097Z,101810.31
2023-02-03T18:59:40.071Z,101793.09
2023-02-03T19:02:07.436Z,101799.31
2023-02-03T19:04:34.351Z,101801.59
2023-02-03T19:07:01.132Z,101753.56
2023-02-03T19:09:30.639Z,101755.84
2023-02-03T19:11:58.970Z,101669.88
2023-02-03T19:14:26.313Z,101780.69
2023-02-03T19:16:53.243Z,101702.28
2023-02-03T19:19:28.599Z,101781.88
2023-02-03T19:21:58.850Z,101788.09
2023-02-03T19:24:31.338Z,101780.03
2023-02-03T19:26:58.097Z,101604.09
2023-02-03T19:29:24.946Z,101769.63
2023-02-03T19:31:51.897Z,101736.13
2023-02-03T19:34:18.999Z,101755.47
2023-02-03T19:36:47.256Z,101753.53
2023-02-03T19:39:14.633Z,101741.22
2023-02-03T19:41:41.831Z,101764.81
2023-02-03T19:44:08.632Z,101672.91
2023-02-03T19:46:37.540Z,101736.78
2023-02-03T19:49:11.104Z,101695.13
2023-02-03T19:51:38.304Z,101650.94
2023-02-03T19:54:07.574Z,101649.41
2023-02-03T19:56:39.763Z,101683.50
2023-02-03T19:59:07.201Z,101646.88
2023-02-03T20:01:34.652Z,101704.78
2023-02-03T20:04:01.613Z,101695.72
2023-02-03T20:06:35.693Z,101732.19
2023-02-03T20:09:04.892Z,101720.34
2023-02-03T20:11:35.239Z,101722.50
2023-02-03T20:14:05.578Z,101728.50
2023-02-03T20:16:32.427Z,101596.81
2023-02-03T20:19:02.588Z,101720.25
2023-02-03T20:21:30.636Z,101601.38
2023-02-03T20:23:58.715Z,101649.63
2023-02-03T20:26:28.501Z,101659.41
2023-02-03T20:29:02.327Z,101670.47
2023-02-03T20:31:32.100Z,101662.97
2023-02-03T20:34:00.799Z,101652.69
2023-02-03T20:36:27.958Z,101504.75
2023-02-03T20:39:01.148Z,101586.09
2023-02-03T20:41:33.854Z,101652.34
2023-02-03T20:44:10.956Z,101537.41
2023-02-03T20:46:39.722Z,101537.72
2023-02-03T20:49:20.085Z,101528.19
2023-02-03T20:51:51.033Z,101519.28
2023-02-03T20:54:24.709Z,101569.50
2023-02-03T20:56:51.629Z,101513.66
2023-02-03T20:59:19.760Z,101451.66
2023-02-03T21:01:49.708Z,101623.19
2023-02-03T21:04:42.743Z,101507.59
2023-02-03T21:07:25.692Z,101501.41
2023-02-03T21:10:05.582Z,101431.53
2023-02-03T21:12:33.773Z,101607.50
2023-02-03T21:15:04.174Z,101578.44
2023-02-03T21:17:44.684Z,101604.22
2023-02-03T21:20:32.803Z,101453.44
2023-02-03T21:23:01.842Z,101573.03
2023-02-03T21:25:32.212Z,101595.22
2023-02-03T21:28:02.367Z,101553.31
2023-02-03T21:30:45.328Z,101580.44
2023-02-03T21:33:51.716Z,101602.28
2023-02-03T21:36:40.497Z,101555.28
2023-02-03T21:39:28.867Z,101586.63
2023-02-03T21:41:57.327Z,101487.09
2023-02-03T21:44:34.306Z,101613.06
2023-02-03T21:47:28.398Z,101626.69
2023-02-03T21:49:56.426Z,101628.69
2023-02-03T21:52:29.165Z,101633.56
2023-02-03T21:55:00.428Z,101522.69
2023-02-03T21:57:27.371Z,101582.78
2023-02-03T21:59:54.111Z,101613.00
2023-02-03T22:02:42.764Z,101618.72
2023-02-03T22:05:16.954Z,101639.94
2023-02-03T22:07:50.684Z,101610.88
2023-02-03T22:10:21.957Z,101594.75
2023-02-03T22:12:53.911Z,101627.97
2023-02-03T22:15:24.005Z,101660.09
2023-02-03T22:17:51.112Z,101663.41
2023-02-03T22:20:18.105Z,101651.63
2023-02-03T22:22:50.772Z,101652.06
2023-02-03T22:25:17.556Z,101619.38
2023-02-03T22:27:44.273Z,101644.59
2023-02-03T22:30:14.850Z,101651.84
2023-02-03T22:32:44.998Z,101636.66
2023-02-03T22:35:12.827Z,101639.00
2023-02-03T22:37:39.857Z,101672.53
2023-02-03T22:40:07.388Z,101641.44
2023-02-03T22:42:37.274Z,101634.84
2023-02-03T22:45:15.084Z,101650.09
2023-02-03T22:47:41.939Z,101561.16
2023-02-03T22:50:12.066Z,101704.84
2023-02-03T22:52:44.108Z,101693.88
2023-02-03T22:55:15.287Z,101707.34
2023-02-03T22:57:41.950Z,101663.16
2023-02-03T23:00:11.068Z,101693.25
2023-02-03T23:02:41.166Z,101677.25
2023-02-03T23:05:09.763Z,101684.53
2023-02-03T23:07:39.736Z,101651.94
2023-02-03T23:10:17.529Z,101646.63
2023-02-03T23:12:44.586Z,101684.00
2023-02-03T23:15:17.045Z,101686.50
2023-02-03T23:17:46.994Z,101498.28
2023-02-03T23:20:18.055Z,101602.75
2023-02-03T23:22:51.096Z,101638.88
2023-02-03T23:25:17.987Z,101645.59
2023-02-03T23:27:44.853Z,101491.50
2023-02-03T23:30:14.886Z,101665.28
2023-02-03T23:32:44.703Z,101651.97
2023-02-03T23:35:35.922Z,101648.13
2023-02-03T23:38:10.513Z,101637.47
2023-02-03T23:40:37.217Z,101660.78
2023-02-03T23:43:03.956Z,101617.03
2023-02-03T23:45:34.318Z,101636.63
2023-02-03T23:48:09.677Z,101644.44
2023-02-03T23:50:36.847Z,101433.78
2023-02-03T23:53:06.989Z,101640.94
2023-02-03T23:55:33.628Z,101643.66
2023-02-03T23:58:08.680Z,101621.69
